Time;durP1;ratioP1;P1;durP2;ratioP2;P2;SDS_P1;SDS_P2;PMS_P1;PMS_P2;Temp;Humidity;BMP_temperature;BMP_pressure;BME280_temperature;BME280_humidity;BME280_pressure;Samples;Min_cycle;Max_cycle;Signal;HPM_P1;HPM_P2
2023/04/01 00:00:57;;;;;;;;;0.00;0.00;;;;;;;;6336002;22;45377;-82
2023/04/01 00:03:23;;;;;;;;;0.00;0.00;;;;;;;;6335785;22;45287;-82
2023/04/01 00:05:48;;;;;;;;;1.00;0.00;;;;;;;;6335739;22;45343;-82
2023/04/01 00:08:14;;;;;;;;;3.00;0.00;;;;;;;;6335612;22;45333;-82
2023/04/01 00:10:39;;;;;;;;;1.00;0.00;;;;;;;;6337216;22;45287;-82
2023/04/01 00:13:04;;;;;;;;;0.00;0.00;;;;;;;;6336710;22;45259;-83
2023/04/01 00:15:29;;;;;;;;;0.00;0.00;;;;;;;;6337262;22;45418;-82
2023/04/01 00:17:55;;;;;;;;;0.00;0.00;;;;;;;;6336777;22;45342;-83
2023/04/01 00:20:20;;;;;;;;;0.00;0.00;;;;;;;;6337255;22;45300;-82
2023/04/01 00:22:46;;;;;;;;;0.50;0.00;;;;;;;;6337463;22;45342;-82
2023/04/01 00:25:11;;;;;;;;;1.00;0.00;;;;;;;;6336941;22;45296;-83
2023/04/01 00:27:36;;;;;;;;;0.33;0.00;;;;;;;;6336208;22;46061;-82
2023/04/01 00:30:02;;;;;;;;;0.00;0.00;;;;;;;;6336495;22;45480;-84
2023/04/01 00:32:27;;;;;;;;;1.00;0.00;;;;;;;;6337360;22;45351;-82
2023/04/01 00:34:52;;;;;;;;;0.33;0.00;;;;;;;;6336786;22;45505;-81
2023/04/01 00:37:18;;;;;;;;;0.00;0.00;;;;;;;;6336536;22;45504;-82
2023/04/01 00:39:44;;;;;;;;;0.00;0.00;;;;;;;;6336882;22;45562;-83
2023/04/01 00:42:09;;;;;;;;;0.75;0.00;;;;;;;;6336831;22;45321;-83
2023/04/01 00:44:36;;;;;;;;;1.00;0.00;;;;;;;;6337192;22;45299;-81
2023/04/01 00:47:02;;;;;;;;;2.75;0.00;;;;;;;;6336454;22;45579;-83
2023/04/01 00:49:29;;;;;;;;;1.00;0.00;;;;;;;;6336575;22;45301;-82
2023/04/01 00:51:57;;;;;;;;;1.75;0.00;;;;;;;;6337006;22;45174;-83
2023/04/01 00:54:24;;;;;;;;;0.25;0.00;;;;;;;;6337389;22;45384;-83
2023/04/01 00:56:56;;;;;;;;;0.75;0.00;;;;;;;;6336015;22;46466;-80
2023/04/01 00:59:42;;;;;;;;;1.00;0.00;;;;;;;;6336430;22;45342;-81
2023/04/01 01:02:09;;;;;;;;;0.00;0.00;;;;;;;;6337421;22;45221;-81
2023/04/01 01:04:35;;;;;;;;;1.00;0.00;;;;;;;;6337371;22;45385;-81
2023/04/01 01:07:09;;;;;;;;;0.00;0.00;;;;;;;;6336384;22;45386;-81
2023/04/01 01:09:57;;;;;;;;;0.00;0.00;;;;;;;;6337075;22;45397;-81
2023/04/01 01:12:34;;;;;;;;;0.00;0.00;;;;;;;;6319884;22;45283;-83
2023/04/01 01:14:59;;;;;;;;;0.75;0.00;;;;;;;;6337446;22;45249;-83
2023/04/01 01:17:24;;;;;;;;;0.67;0.00;;;;;;;;6336897;22;46390;-81
2023/04/01 01:19:52;;;;;;;;;0.00;0.00;;;;;;;;6336600;22;45243;-82
2023/04/01 01:22:36;;;;;;;;;0.00;0.00;;;;;;;;6336344;22;45189;-79
2023/04/01 01:25:14;;;;;;;;;0.75;0.00;;;;;;;;6336391;22;45160;-81
2023/04/01 01:27:41;;;;;;;;;1.75;0.00;;;;;;;;6336239;22;45476;-81
2023/04/01 01:30:09;;;;;;;;;0.00;0.00;;;;;;;;6336497;22;45359;-81
2023/04/01 01:32:42;;;;;;;;;0.00;0.00;;;;;;;;6336625;22;45332;-81
2023/04/01 01:35:07;;;;;;;;;0.00;0.00;;;;;;;;6336998;22;45374;-82
2023/04/01 01:37:33;;;;;;;;;0.00;0.00;;;;;;;;6337068;22;45326;-83
2023/04/01 01:40:01;;;;;;;;;1.00;0.00;;;;;;;;6335835;22;45383;-82
2023/04/01 01:42:28;;;;;;;;;2.50;0.00;;;;;;;;6336827;22;45512;-82
2023/04/01 01:44:55;;;;;;;;;3.00;0.00;;;;;;;;6337216;22;45451;-81
2023/04/01 01:47:22;;;;;;;;;3.00;0.00;;;;;;;;6335893;22;45305;-82
2023/04/01 01:49:47;;;;;;;;;0.00;0.00;;;;;;;;6336840;22;45582;-82
2023/04/01 01:52:13;;;;;;;;;0.00;0.00;;;;;;;;6336697;22;45240;-83
2023/04/01 01:54:55;;;;;;;;;0.00;0.00;;;;;;;;6336561;22;45162;-81
2023/04/01 01:57:24;;;;;;;;;0.00;0.00;;;;;;;;6336753;22;45496;-82
2023/04/01 01:59:52;;;;;;;;;0.00;0.00;;;;;;;;6336380;22;45153;-81
2023/04/01 02:02:18;;;;;;;;;1.75;0.00;;;;;;;;6336509;22;45148;-82
2023/04/01 02:04:45;;;;;;;;;1.50;0.00;;;;;;;;6336446;22;45435;-82
2023/04/01 02:07:14;;;;;;;;;1.25;0.00;;;;;;;;6336785;22;46518;-82
2023/04/01 02:09:39;;;;;;;;;0.00;0.00;;;;;;;;6336640;22;45441;-82
2023/04/01 02:12:07;;;;;;;;;0.00;0.00;;;;;;;;6336304;22;45362;-83
2023/04/01 02:14:39;;;;;;;;;2.25;0.00;;;;;;;;6336614;22;45690;-82
2023/04/01 02:17:07;;;;;;;;;0.75;0.00;;;;;;;;6336228;22;45613;-83
2023/04/01 02:19:35;;;;;;;;;0.00;0.00;;;;;;;;6336454;22;45450;-83
2023/04/01 02:22:01;;;;;;;;;1.00;0.00;;;;;;;;6337110;22;45245;-82
2023/04/01 02:24:27;;;;;;;;;1.00;0.00;;;;;;;;6336486;22;45279;-83
2023/04/01 02:26:53;;;;;;;;;3.50;0.00;;;;;;;;6336258;22;46473;-82
2023/04/01 02:29:20;;;;;;;;;0.00;0.00;;;;;;;;6336547;22;45326;-83
2023/04/01 02:31:45;;;;;;;;;1.00;0.00;;;;;;;;6335900;22;45226;-82
2023/04/01 02:34:11;;;;;;;;;2.00;0.00;;;;;;;;6336883;22;45489;-82
2023/04/01 02:36:36;;;;;;;;;0.00;0.00;;;;;;;;6336061;22;46137;-82
2023/04/01 02:39:04;;;;;;;;;0.00;0.00;;;;;;;;6336148;22;45221;-81
2023/04/01 02:41:29;;;;;;;;;4.50;0.00;;;;;;;;6336237;22;45440;-83
2023/04/01 02:43:54;;;;;;;;;2.75;0.00;;;;;;;;6336334;22;45358;-82
2023/04/01 02:46:20;;;;;;;;;0.00;0.00;;;;;;;;6336187;22;46200;-83
2023/04/01 02:48:45;;;;;;;;;1.00;0.00;;;;;;;;6336464;22;45310;-83
2023/04/01 02:51:10;;;;;;;;;0.00;0.00;;;;;;;;6336523;22;45344;-81
2023/04/01 02:53:35;;;;;;;;;2.00;0.00;;;;;;;;6336441;22;45272;-81
2023/04/01 02:56:00;;;;;;;;;0.00;0.00;;;;;;;;6336056;22;46919;-82
2023/04/01 02:58:26;;;;;;;;;0.50;0.00;;;;;;;;6335808;22;45221;-82
2023/04/01 03:00:51;;;;;;;;;6.00;0.33;;;;;;;;6336264;22;45327;-81
2023/04/01 03:03:16;;;;;;;;;1.00;0.00;;;;;;;;6335888;22;45408;-81
2023/04/01 03:05:41;;;;;;;;;1.00;0.00;;;;;;;;6336557;22;46127;-81
2023/04/01 03:08:06;;;;;;;;;0.00;0.00;;;;;;;;6336018;22;45269;-82
2023/04/01 03:10:32;;;;;;;;;1.00;0.00;;;;;;;;6333990;22;45244;-82
2023/04/01 03:12:57;;;;;;;;;0.75;0.75;;;;;;;;6336174;22;45252;-83
2023/04/01 03:15:22;;;;;;;;;0.00;0.00;;;;;;;;6336226;22;46259;-83
2023/04/01 03:17:48;;;;;;;;;0.50;0.00;;;;;;;;6335603;22;45346;-83
2023/04/01 03:20:13;;;;;;;;;0.00;0.00;;;;;;;;6336228;22;45295;-82
2023/04/01 03:22:39;;;;;;;;;0.00;0.00;;;;;;;;6335909;22;45390;-82
2023/04/01 03:25:04;;;;;;;;;2.50;0.00;;;;;;;;6336058;22;45298;-83
2023/04/01 03:27:29;;;;;;;;;0.00;0.00;;;;;;;;6335860;22;45407;-82
2023/04/01 03:29:55;;;;;;;;;0.00;0.00;;;;;;;;6335941;22;45232;-82
2023/04/01 03:32:20;;;;;;;;;0.33;0.33;;;;;;;;6336019;22;45180;-83
2023/04/01 03:34:45;;;;;;;;;0.33;0.00;;;;;;;;6335942;22;45993;-82
2023/04/01 03:37:10;;;;;;;;;0.00;0.00;;;;;;;;6335747;22;45255;-82
2023/04/01 03:39:35;;;;;;;;;0.00;0.00;;;;;;;;6336481;22;45343;-82
2023/04/01 03:42:01;;;;;;;;;0.67;0.00;;;;;;;;6336431;22;45185;-84
2023/04/01 03:44:30;;;;;;;;;0.00;0.00;;;;;;;;6337351;22;45270;-82
2023/04/01 03:46:55;;;;;;;;;0.00;0.00;;;;;;;;6337001;22;45660;-83
2023/04/01 03:49:20;;;;;;;;;2.00;1.00;;;;;;;;6337615;22;45225;-81
2023/04/01 03:51:45;;;;;;;;;1.33;0.00;;;;;;;;6336976;22;45270;-82
2023/04/01 03:54:10;;;;;;;;;0.00;0.00;;;;;;;;6337489;22;45353;-82
2023/04/01 03:56:36;;;;;;;;;0.00;0.00;;;;;;;;6337191;22;45330;-82
2023/04/01 03:59:03;;;;;;;;;0.00;0.00;;;;;;;;6337427;22;45252;-82
2023/04/01 04:01:28;;;;;;;;;0.00;0.00;;;;;;;;6337358;22;45425;-81
2023/04/01 04:03:53;;;;;;;;;0.00;0.00;;;;;;;;6336640;22;46460;-82
2023/04/01 04:06:19;;;;;;;;;2.33;1.00;;;;;;;;6336839;22;45319;-81
2023/04/01 04:08:44;;;;;;;;;1.75;0.00;;;;;;;;6336692;22;45323;-81
2023/04/01 04:11:10;;;;;;;;;0.00;0.00;;;;;;;;6337497;22;45352;-81
2023/04/01 04:13:35;;;;;;;;;0.75;0.50;;;;;;;;6336607;22;46897;-83
2023/04/01 04:16:01;;;;;;;;;1.00;0.00;;;;;;;;6336762;22;45308;-83
2023/04/01 04:18:26;;;;;;;;;1.00;0.00;;;;;;;;6337524;22;45278;-82
2023/04/01 04:20:51;;;;;;;;;0.00;0.00;;;;;;;;6336437;22;45436;-83
2023/04/01 04:23:17;;;;;;;;;0.00;0.00;;;;;;;;6336960;22;46281;-82
2023/04/01 04:25:52;;;;;;;;;0.00;0.00;;;;;;;;6337494;22;45146;-82
2023/04/01 04:28:17;;;;;;;;;1.00;0.00;;;;;;;;6338040;22;45238;-83
2023/04/01 04:30:43;;;;;;;;;1.00;0.00;;;;;;;;6339445;22;45411;-83
2023/04/01 04:33:08;;;;;;;;;0.00;0.00;;;;;;;;6337542;22;45431;-82
2023/04/01 04:35:33;;;;;;;;;0.67;0.00;;;;;;;;6336973;22;45646;-83
2023/04/01 04:37:58;;;;;;;;;3.00;0.00;;;;;;;;6335483;22;45253;-83
2023/04/01 04:40:23;;;;;;;;;0.00;0.00;;;;;;;;6337676;22;45383;-83
2023/04/01 04:42:49;;;;;;;;;0.67;0.00;;;;;;;;6337062;22;46184;-83
2023/04/01 04:45:14;;;;;;;;;1.00;0.00;;;;;;;;6336743;22;45264;-83
2023/04/01 04:47:39;;;;;;;;;0.00;0.00;;;;;;;;6337543;22;45338;-81
2023/04/01 04:50:05;;;;;;;;;1.00;0.00;;;;;;;;6336226;22;45178;-82
2023/04/01 04:52:30;;;;;;;;;0.25;0.00;;;;;;;;6336772;22;47105;-82
2023/04/01 04:54:55;;;;;;;;;0.00;0.00;;;;;;;;6336929;22;45285;-82
2023/04/01 04:57:20;;;;;;;;;1.00;0.00;;;;;;;;6337118;22;45299;-81
2023/04/01 04:59:45;;;;;;;;;0.00;0.00;;;;;;;;6336842;22;45445;-81
2023/04/01 05:02:11;;;;;;;;;2.00;0.00;;;;;;;;6337263;22;46336;-81
2023/04/01 05:04:36;;;;;;;;;0.00;0.00;;;;;;;;6336209;22;45326;-81
2023/04/01 05:07:02;;;;;;;;;2.25;0.00;;;;;;;;6336895;22;45388;-81
2023/04/01 05:09:27;;;;;;;;;2.00;0.00;;;;;;;;6337043;22;45449;-81
2023/04/01 05:11:52;;;;;;;;;0.00;0.00;;;;;;;;6337133;22;45645;-82
2023/04/01 05:14:17;;;;;;;;;0.33;0.00;;;;;;;;6337253;22;45365;-83
2023/04/01 05:16:43;;;;;;;;;0.00;0.00;;;;;;;;6336998;22;45315;-81
2023/04/01 05:19:08;;;;;;;;;3.00;0.00;;;;;;;;6336642;22;45287;-81
2023/04/01 05:21:33;;;;;;;;;1.00;0.00;;;;;;;;6337258;22;45449;-81
2023/04/01 05:23:58;;;;;;;;;0.00;0.00;;;;;;;;6337124;22;45322;-81
2023/04/01 05:26:24;;;;;;;;;0.33;0.00;;;;;;;;6337370;22;45294;-81
2023/04/01 05:28:49;;;;;;;;;0.00;0.00;;;;;;;;6336923;22;45306;-81
2023/04/01 05:31:14;;;;;;;;;0.33;0.00;;;;;;;;6336727;22;46135;-82
2023/04/01 05:33:39;;;;;;;;;0.00;0.00;;;;;;;;6336680;22;45280;-82
2023/04/01 05:36:08;;;;;;;;;4.00;0.00;;;;;;;;6336624;22;45208;-81
2023/04/01 05:38:34;;;;;;;;;0.00;0.00;;;;;;;;6336474;22;45462;-82
2023/04/01 05:41:00;;;;;;;;;0.50;0.00;;;;;;;;6336674;22;45299;-81
2023/04/01 05:43:25;;;;;;;;;0.75;0.00;;;;;;;;6336489;22;45609;-83
2023/04/01 05:45:50;;;;;;;;;0.67;0.00;;;;;;;;6337227;22;45396;-83
2023/04/01 05:48:16;;;;;;;;;1.00;0.00;;;;;;;;6336394;22;45484;-83
2023/04/01 05:50:41;;;;;;;;;1.00;0.00;;;;;;;;6336428;22;46216;-83
2023/04/01 05:53:07;;;;;;;;;0.00;0.00;;;;;;;;6336792;22;45304;-83
2023/04/01 05:55:34;;;;;;;;;0.33;0.00;;;;;;;;6337094;22;45267;-83
2023/04/01 05:57:59;;;;;;;;;0.00;0.00;;;;;;;;6336968;22;45178;-83
2023/04/01 06:00:24;;;;;;;;;0.67;0.00;;;;;;;;6336229;22;46209;-83
2023/04/01 06:02:49;;;;;;;;;1.00;0.00;;;;;;;;6336636;22;45314;-83
2023/04/01 06:05:19;;;;;;;;;0.00;0.00;;;;;;;;6335923;22;45218;-83
2023/04/01 06:07:45;;;;;;;;;1.00;0.00;;;;;;;;6335961;22;45251;-82
2023/04/01 06:10:15;;;;;;;;;1.25;0.00;;;;;;;;6336572;22;45546;-82
2023/04/01 06:12:59;;;;;;;;;0.00;0.00;;;;;;;;6336361;22;45221;-82
2023/04/01 06:15:35;;;;;;;;;2.00;0.00;;;;;;;;6335853;22;45354;-83
2023/04/01 06:18:19;;;;;;;;;0.75;0.00;;;;;;;;6336291;22;45390;-81
2023/04/01 06:20:47;;;;;;;;;0.50;0.00;;;;;;;;6336084;22;46312;-81
2023/04/01 06:23:12;;;;;;;;;0.00;0.00;;;;;;;;6336662;22;45160;-81
2023/04/01 06:25:56;;;;;;;;;0.00;0.00;;;;;;;;6336330;22;45339;-81
2023/04/01 06:28:40;;;;;;;;;0.00;0.00;;;;;;;;6336853;22;45262;-81
2023/04/01 06:31:20;;;;;;;;;0.00;0.00;;;;;;;;6335633;22;46371;-81
2023/04/01 06:34:06;;;;;;;;;0.00;0.00;;;;;;;;6336223;22;45648;-82
2023/04/01 06:36:52;;;;;;;;;2.00;0.00;;;;;;;;6336397;22;45254;-81
2023/04/01 06:39:17;;;;;;;;;0.00;0.00;;;;;;;;6336724;22;45341;-80
2023/04/01 06:42:01;;;;;;;;;1.00;0.00;;;;;;;;6334362;22;47511;-81
2023/04/01 06:44:33;;;;;;;;;0.00;0.00;;;;;;;;6336170;22;45596;-81
2023/04/01 06:47:04;;;;;;;;;0.00;0.00;;;;;;;;6336263;22;45175;-81
2023/04/01 06:49:33;;;;;;;;;0.00;0.00;;;;;;;;6336502;22;45308;-81
2023/04/01 06:52:02;;;;;;;;;0.00;0.00;;;;;;;;6336210;22;45558;-81
2023/04/01 06:54:39;;;;;;;;;0.00;0.00;;;;;;;;6336515;22;45299;-80
2023/04/01 06:57:19;;;;;;;;;0.00;0.00;;;;;;;;6336222;22;45268;-80
2023/04/01 06:59:44;;;;;;;;;0.00;0.00;;;;;;;;6336211;22;45345;-80
2023/04/01 07:02:09;;;;;;;;;0.00;0.00;;;;;;;;6336208;22;45258;-79
2023/04/01 07:04:41;;;;;;;;;0.33;0.00;;;;;;;;6336371;22;45226;-79
2023/04/01 07:07:29;;;;;;;;;0.50;0.00;;;;;;;;6335450;22;45320;-80
2023/04/01 07:09:59;;;;;;;;;0.00;0.00;;;;;;;;6318835;22;45305;-80
2023/04/01 07:12:36;;;;;;;;;0.00;0.00;;;;;;;;6335683;22;45257;-80
2023/04/01 07:15:03;;;;;;;;;1.25;0.00;;;;;;;;6335847;22;45963;-80
2023/04/01 07:17:31;;;;;;;;;0.00;0.00;;;;;;;;6335672;22;45186;-80
2023/04/01 07:20:26;;;;;;;;;0.25;0.00;;;;;;;;6336181;22;45320;-80
2023/04/01 07:22:54;;;;;;;;;1.00;0.00;;;;;;;;6308328;22;46132;-81
2023/04/01 07:25:22;;;;;;;;;0.25;0.00;;;;;;;;6335672;22;45328;-81
2023/04/01 07:27:48;;;;;;;;;0.00;0.00;;;;;;;;6334525;22;45357;-80
2023/04/01 07:30:16;;;;;;;;;2.00;0.00;;;;;;;;6336485;22;45189;-81
2023/04/01 07:32:47;;;;;;;;;1.00;0.00;;;;;;;;6335451;22;46261;-80
2023/04/01 07:35:12;;;;;;;;;0.00;0.00;;;;;;;;6335689;22;45288;-82
2023/04/01 07:37:42;;;;;;;;;1.00;0.00;;;;;;;;6336218;22;45265;-83
2023/04/01 07:40:14;;;;;;;;;0.00;0.00;;;;;;;;6335967;22;45297;-81
2023/04/01 07:42:48;;;;;;;;;0.00;0.00;;;;;;;;6335316;22;45447;-80
2023/04/01 07:45:28;;;;;;;;;0.00;0.00;;;;;;;;6336106;22;45548;-81
2023/04/01 07:47:57;;;;;;;;;0.50;0.00;;;;;;;;6336078;22;45364;-80
2023/04/01 07:50:27;;;;;;;;;1.00;0.00;;;;;;;;6335857;22;45127;-80
2023/04/01 07:53:11;;;;;;;;;0.75;0.00;;;;;;;;6335482;22;45662;-79
2023/04/01 07:55:42;;;;;;;;;0.00;0.00;;;;;;;;6335830;22;45331;-79
2023/04/01 07:58:26;;;;;;;;;0.00;0.00;;;;;;;;6335293;22;45233;-79
2023/04/01 08:00:57;;;;;;;;;3.50;0.50;;;;;;;;6335900;22;45263;-80
2023/04/01 08:03:25;;;;;;;;;3.00;0.00;;;;;;;;6335273;22;45335;-80
2023/04/01 08:06:05;;;;;;;;;0.25;0.00;;;;;;;;6335314;22;45470;-79
2023/04/01 08:08:45;;;;;;;;;1.50;0.00;;;;;;;;6335852;22;45279;-79
2023/04/01 08:11:16;;;;;;;;;0.00;0.00;;;;;;;;6334917;22;45242;-81
2023/04/01 08:13:47;;;;;;;;;0.25;0.00;;;;;;;;6335273;22;46620;-81
2023/04/01 08:16:51;;;;;;;;;0.00;0.00;;;;;;;;6335930;22;45220;-80
2023/04/01 08:19:16;;;;;;;;;2.00;0.00;;;;;;;;6208268;22;45288;-81
2023/04/01 08:21:50;;;;;;;;;0.00;0.00;;;;;;;;6208625;22;45352;-81
2023/04/01 08:24:29;;;;;;;;;0.00;0.00;;;;;;;;6209057;22;45324;-80
2023/04/01 08:26:57;;;;;;;;;0.00;0.00;;;;;;;;6207970;22;45632;-80
2023/04/01 08:29:25;;;;;;;;;1.00;0.00;;;;;;;;6209341;22;45367;-81
2023/04/01 08:31:56;;;;;;;;;3.75;0.00;;;;;;;;6210154;22;45337;-81
2023/04/01 08:34:25;;;;;;;;;1.00;0.00;;;;;;;;6210475;22;46218;-81
2023/04/01 08:37:00;;;;;;;;;1.00;0.00;;;;;;;;6210167;22;45705;-81
2023/04/01 08:39:36;;;;;;;;;0.00;0.00;;;;;;;;6209905;22;45258;-80
2023/04/01 08:42:04;;;;;;;;;0.25;0.00;;;;;;;;6209990;22;45214;-82
2023/04/01 08:44:32;;;;;;;;;0.50;0.00;;;;;;;;6209654;22;46281;-81
2023/04/01 08:47:16;;;;;;;;;0.00;0.00;;;;;;;;6210394;22;45609;-83
2023/04/01 08:49:41;;;;;;;;;0.00;0.00;;;;;;;;6255961;22;45298;-80
2023/04/01 08:52:12;;;;;;;;;1.00;0.67;;;;;;;;6337045;22;45395;-80
2023/04/01 08:54:46;;;;;;;;;0.00;0.00;;;;;;;;6336295;22;46141;-80
2023/04/01 08:57:31;;;;;;;;;0.75;0.00;;;;;;;;6336862;22;45569;-80
2023/04/01 09:00:11;;;;;;;;;0.25;0.00;;;;;;;;6337152;22;45224;-81
2023/04/01 09:02:39;;;;;;;;;2.00;0.00;;;;;;;;6337313;22;45306;-81
2023/04/01 09:05:23;;;;;;;;;0.75;0.00;;;;;;;;6336957;22;46765;-80
2023/04/01 09:07:57;;;;;;;;;2.50;0.00;;;;;;;;6336915;22;45581;-81
2023/04/01 09:10:41;;;;;;;;;0.00;0.00;;;;;;;;6336490;22;45258;-81
2023/04/01 09:13:18;;;;;;;;;0.00;0.00;;;;;;;;6336805;22;45486;-81
2023/04/01 09:16:01;;;;;;;;;1.50;0.00;;;;;;;;6337041;22;46223;-81
2023/04/01 09:18:37;;;;;;;;;2.00;0.00;;;;;;;;6336505;22;45292;-80
2023/04/01 09:21:11;;;;;;;;;2.50;0.00;;;;;;;;6337212;22;45623;-79
2023/04/01 09:23:45;;;;;;;;;0.50;0.00;;;;;;;;6336656;22;45277;-80
2023/04/01 09:26:29;;;;;;;;;0.00;0.00;;;;;;;;6336548;22;46128;-79
2023/04/01 09:29:04;;;;;;;;;0.00;0.00;;;;;;;;6336448;22;45665;-79
2023/04/01 09:31:41;;;;;;;;;0.00;0.00;;;;;;;;6337104;22;45461;-79
2023/04/01 09:34:09;;;;;;;;;1.00;0.00;;;;;;;;6336623;22;45266;-79
2023/04/01 09:36:43;;;;;;;;;1.00;0.00;;;;;;;;6336747;22;45368;-79
2023/04/01 09:39:26;;;;;;;;;1.50;0.00;;;;;;;;6335958;22;45322;-79
2023/04/01 09:41:57;;;;;;;;;0.25;0.00;;;;;;;;6336643;22;45291;-80
2023/04/01 09:44:31;;;;;;;;;0.25;0.00;;;;;;;;6337210;22;45267;-79
2023/04/01 09:47:15;;;;;;;;;0.00;0.00;;;;;;;;6336531;22;45529;-82
2023/04/01 09:49:40;;;;;;;;;1.25;0.00;;;;;;;;6336647;22;45231;-82
2023/04/01 09:52:08;;;;;;;;;1.33;0.00;;;;;;;;6336708;22;45608;-81
2023/04/01 09:54:42;;;;;;;;;0.00;0.00;;;;;;;;6336679;22;45224;-81
2023/04/01 09:57:16;;;;;;;;;1.00;0.00;;;;;;;;6336873;22;45235;-82
2023/04/01 09:59:54;;;;;;;;;0.00;0.00;;;;;;;;6336708;22;45237;-79
2023/04/01 10:02:19;;;;;;;;;0.00;0.00;;;;;;;;6336728;22;45264;-80
2023/04/01 10:05:00;;;;;;;;;0.00;0.00;;;;;;;;6337161;22;45335;-81
2023/04/01 10:07:41;;;;;;;;;0.00;0.00;;;;;;;;6336218;22;46600;-81
2023/04/01 10:10:25;;;;;;;;;0.25;0.00;;;;;;;;6336611;22;45606;-83
2023/04/01 10:12:59;;;;;;;;;0.00;0.00;;;;;;;;6337025;22;45314;-80
2023/04/01 10:15:43;;;;;;;;;0.00;0.00;;;;;;;;6337560;22;45354;-80
2023/04/01 10:18:09;;;;;;;;;0.00;0.00;;;;;;;;6336900;22;46373;-82
2023/04/01 10:20:53;;;;;;;;;0.75;0.00;;;;;;;;6336492;22;45381;-82
2023/04/01 10:23:43;;;;;;;;;0.50;0.00;;;;;;;;6336399;22;45242;-82
2023/04/01 10:26:27;;;;;;;;;0.00;0.00;;;;;;;;6335375;22;45420;-81
2023/04/01 10:28:52;;;;;;;;;0.00;0.00;;;;;;;;6336894;22;45243;-81
2023/04/01 10:31:17;;;;;;;;;0.67;0.00;;;;;;;;6336762;22;45343;-81
2023/04/01 10:33:55;;;;;;;;;1.00;0.00;;;;;;;;6337347;22;45407;-81
2023/04/01 10:36:20;;;;;;;;;0.00;0.00;;;;;;;;6337276;22;45157;-83
2023/04/01 10:39:08;;;;;;;;;0.33;0.00;;;;;;;;6337207;22;46200;-82
2023/04/01 10:41:48;;;;;;;;;1.50;0.00;;;;;;;;6336843;22;45165;-81
2023/04/01 10:44:19;;;;;;;;;1.00;0.00;;;;;;;;6336439;22;45285;-82
2023/04/01 10:46:53;;;;;;;;;0.00;0.00;;;;;;;;6336738;22;45394;-83
2023/04/01 10:49:37;;;;;;;;;0.00;0.00;;;;;;;;6335961;22;45329;-81
2023/04/01 10:52:02;;;;;;;;;0.00;0.00;;;;;;;;6335199;22;45261;-81
2023/04/01 10:54:33;;;;;;;;;0.00;0.00;;;;;;;;6336754;22;45234;-80
2023/04/01 10:57:02;;;;;;;;;0.50;0.00;;;;;;;;6336255;22;45330;-81
2023/04/01 10:59:46;;;;;;;;;0.00;0.00;;;;;;;;6335867;22;45262;-81
2023/04/01 11:02:11;;;;;;;;;0.00;0.00;;;;;;;;6335662;22;45676;-80
2023/04/01 11:04:55;;;;;;;;;0.00;0.00;;;;;;;;6336027;22;45263;-80
2023/04/01 11:07:39;;;;;;;;;0.50;0.00;;;;;;;;6336384;22;45419;-81
2023/04/01 11:10:23;;;;;;;;;0.00;0.00;;;;;;;;6335485;22;45397;-82
2023/04/01 11:13:07;;;;;;;;;0.00;0.00;;;;;;;;6336066;22;45483;-82
2023/04/01 11:15:35;;;;;;;;;0.00;0.00;;;;;;;;6335749;22;45554;-82
2023/04/01 11:18:18;;;;;;;;;0.00;0.00;;;;;;;;6336316;22;45173;-81
2023/04/01 11:21:02;;;;;;;;;1.50;0.00;;;;;;;;6335612;22;45567;-83
2023/04/01 11:23:45;;;;;;;;;0.00;0.00;;;;;;;;6335871;22;45307;-82
2023/04/01 11:26:29;;;;;;;;;0.00;0.00;;;;;;;;6336235;22;45364;-81
2023/04/01 11:29:09;;;;;;;;;0.25;0.00;;;;;;;;6336249;22;45396;-83
2023/04/01 11:31:42;;;;;;;;;0.00;0.00;;;;;;;;6335566;22;46410;-81
2023/04/01 11:34:13;;;;;;;;;0.00;0.00;;;;;;;;6335169;22;45619;-84
2023/04/01 11:36:41;;;;;;;;;1.75;0.00;;;;;;;;6336212;22;45234;-82
2023/04/01 11:39:21;;;;;;;;;0.00;0.00;;;;;;;;6335862;22;45445;-83
2023/04/01 11:41:58;;;;;;;;;0.75;0.00;;;;;;;;6335419;22;46182;-81
2023/04/01 11:44:27;;;;;;;;;0.00;0.00;;;;;;;;6335617;22;45461;-83
2023/04/01 11:47:11;;;;;;;;;0.00;0.00;;;;;;;;6335828;22;45318;-83
2023/04/01 11:49:48;;;;;;;;;0.00;0.00;;;;;;;;6335705;22;45336;-82
2023/04/01 11:52:32;;;;;;;;;1.00;0.00;;;;;;;;6335305;22;45312;-83
2023/04/01 11:55:14;;;;;;;;;0.00;0.00;;;;;;;;6335308;22;45327;-82
2023/04/01 11:58:00;;;;;;;;;0.00;0.00;;;;;;;;6336163;22;45286;-82
2023/04/01 12:00:31;;;;;;;;;0.00;0.00;;;;;;;;6313190;22;45438;-83
2023/04/01 12:03:21;;;;;;;;;0.00;0.00;;;;;;;;6335047;22;45618;-86
2023/04/01 12:06:06;;;;;;;;;0.00;0.00;;;;;;;;6336427;22;45631;-84
2023/04/01 12:08:44;;;;;;;;;0.00;0.00;;;;;;;;6210104;22;45520;-87
2023/04/01 12:11:18;;;;;;;;;0.00;0.00;;;;;;;;6210721;22;45427;-87
2023/04/01 12:13:53;;;;;;;;;0.00;0.00;;;;;;;;6210347;22;45332;-87
2023/04/01 12:16:34;;;;;;;;;0.50;0.00;;;;;;;;6210424;22;45346;-85
2023/04/01 12:19:17;;;;;;;;;0.00;0.00;;;;;;;;6218564;22;45469;-84
2023/04/01 12:21:55;;;;;;;;;1.00;0.00;;;;;;;;6221798;22;45338;-85
2023/04/01 12:24:30;;;;;;;;;0.00;0.00;;;;;;;;6222486;22;45672;-85
2023/04/01 12:27:06;;;;;;;;;0.25;0.00;;;;;;;;6186366;22;45439;-84
2023/04/01 12:29:35;;;;;;;;;0.75;0.00;;;;;;;;6210483;22;45261;-84
2023/04/01 12:32:00;;;;;;;;;0.00;0.00;;;;;;;;6210058;22;45295;-83
2023/04/01 12:34:43;;;;;;;;;0.00;0.00;;;;;;;;6210843;22;45499;-84
2023/04/01 12:37:24;;;;;;;;;1.75;0.00;;;;;;;;6210421;22;45403;-84
2023/04/01 12:40:08;;;;;;;;;0.00;0.00;;;;;;;;6210276;22;45491;-84
2023/04/01 12:42:51;;;;;;;;;0.00;0.00;;;;;;;;6209774;22;45281;-83
2023/04/01 12:45:17;;;;;;;;;0.25;0.00;;;;;;;;6252265;22;46511;-83
2023/04/01 12:47:53;;;;;;;;;0.67;0.00;;;;;;;;6336035;22;45307;-85
2023/04/01 12:50:37;;;;;;;;;0.25;0.00;;;;;;;;6336043;22;45221;-84
2023/04/01 12:53:21;;;;;;;;;0.00;0.00;;;;;;;;6338249;22;45394;-87
2023/04/01 12:55:52;;;;;;;;;0.00;0.00;;;;;;;;6335988;22;46940;-89
2023/04/01 12:58:36;;;;;;;;;0.00;0.00;;;;;;;;6338619;22;45589;-87
2023/04/01 13:01:01;;;;;;;;;0.00;0.00;;;;;;;;6336990;22;45680;-91
2023/04/01 13:03:45;;;;;;;;;0.00;0.00;;;;;;;;6339532;22;45272;-90
2023/04/01 13:06:14;;;;;;;;;0.00;0.00;;;;;;;;6338230;22;45460;-87
2023/04/01 13:08:40;;;;;;;;;0.00;0.00;;;;;;;;6336039;22;45525;-88
2023/04/01 13:11:13;;;;;;;;;0.00;0.00;;;;;;;;6337571;22;45272;-86
2023/04/01 13:13:57;;;;;;;;;0.00;0.00;;;;;;;;6340970;22;45422;-89
2023/04/01 13:16:26;;;;;;;;;0.00;0.00;;;;;;;;6345507;22;46384;-86
2023/04/01 13:18:51;;;;;;;;;0.25;0.00;;;;;;;;6351938;22;45218;-87
2023/04/01 13:21:39;;;;;;;;;0.00;0.00;;;;;;;;6351506;22;45200;-87
2023/04/01 13:24:24;;;;;;;;;0.00;0.00;;;;;;;;6336114;22;45422;-85
2023/04/01 13:27:05;;;;;;;;;0.00;0.00;;;;;;;;6335792;22;45150;-85
2023/04/01 13:29:49;;;;;;;;;0.00;0.00;;;;;;;;6337137;22;45250;-87
2023/04/01 13:32:23;;;;;;;;;1.00;0.00;;;;;;;;6334850;22;45429;-86
2023/04/01 13:35:27;;;;;;;;;0.50;0.00;;;;;;;;6338518;22;45454;-85
2023/04/01 13:37:52;;;;;;;;;1.00;0.00;;;;;;;;6209244;22;45358;-85
2023/04/01 13:40:23;;;;;;;;;0.00;0.00;;;;;;;;6209873;22;45367;-83
2023/04/01 13:43:07;;;;;;;;;0.00;0.00;;;;;;;;6210271;22;45592;-86
2023/04/01 13:45:47;;;;;;;;;0.00;0.00;;;;;;;;6209504;22;45255;-85
2023/04/01 13:48:15;;;;;;;;;0.00;0.00;;;;;;;;6210803;22;45335;-87
2023/04/01 13:50:58;;;;;;;;;0.00;0.00;;;;;;;;6180377;22;45705;-89
2023/04/01 13:53:43;;;;;;;;;0.00;0.00;;;;;;;;6208354;22;45557;-86
2023/04/01 13:56:08;;;;;;;;;0.75;0.00;;;;;;;;6210398;22;45668;-89
2023/04/01 13:58:55;;;;;;;;;0.00;0.00;;;;;;;;6211142;22;45364;-91
2023/04/01 14:01:42;;;;;;;;;1.00;0.00;;;;;;;;6184818;22;45870;-88
2023/04/01 14:04:26;;;;;;;;;0.00;0.00;;;;;;;;6211538;22;45300;-86
2023/04/01 14:07:09;;;;;;;;;0.00;0.00;;;;;;;;6210426;22;45267;-89
2023/04/01 14:09:41;;;;;;;;;0.00;0.00;;;;;;;;6321826;22;46024;-88
2023/04/01 14:12:17;;;;;;;;;0.00;0.00;;;;;;;;6338716;22;45324;-90
2023/04/01 14:14:46;;;;;;;;;0.00;0.00;;;;;;;;6336514;22;45240;-89
2023/04/01 14:17:26;;;;;;;;;0.00;0.00;;;;;;;;6341513;22;45210;-93
2023/04/01 14:19:52;;;;;;;;;1.00;0.00;;;;;;;;6339394;22;47235;-85
2023/04/01 14:22:26;;;;;;;;;1.33;0.00;;;;;;;;6338526;22;45324;-90
2023/04/01 14:25:00;;;;;;;;;0.00;0.00;;;;;;;;6338567;22;45275;-90
2023/04/01 14:27:31;;;;;;;;;0.00;0.00;;;;;;;;6335828;22;45293;-85
2023/04/01 14:30:09;;;;;;;;;0.00;0.00;;;;;;;;6337216;22;45398;-89
2023/04/01 14:32:40;;;;;;;;;0.00;0.00;;;;;;;;6337157;22;45564;-87
2023/04/01 14:35:05;;;;;;;;;0.75;0.00;;;;;;;;6336412;22;45248;-90
2023/04/01 14:37:33;;;;;;;;;0.00;0.00;;;;;;;;6339109;22;45356;-91
2023/04/01 14:40:05;;;;;;;;;0.75;0.00;;;;;;;;6336287;22;46390;-91
2023/04/01 14:42:45;;;;;;;;;0.00;0.00;;;;;;;;6335489;22;45253;-88
2023/04/01 14:45:29;;;;;;;;;1.00;0.00;;;;;;;;6337570;22;45557;-87
2023/04/01 14:47:58;;;;;;;;;0.00;0.00;;;;;;;;6337594;22;45399;-90
2023/04/01 14:50:40;;;;;;;;;1.00;0.00;;;;;;;;6334254;22;48386;-87
2023/04/01 14:53:26;;;;;;;;;1.00;0.00;;;;;;;;6335572;22;45267;-87
2023/04/01 14:55:53;;;;;;;;;0.00;0.00;;;;;;;;6335235;22;45310;-87
2023/04/01 14:58:25;;;;;;;;;0.00;0.00;;;;;;;;6335780;22;45368;-86
2023/04/01 15:00:50;;;;;;;;;0.00;0.00;;;;;;;;6335185;22;45529;-88
2023/04/01 15:03:34;;;;;;;;;0.00;0.00;;;;;;;;6335479;22;45294;-86
2023/04/01 15:06:22;;;;;;;;;0.75;0.00;;;;;;;;6334612;22;45244;-85
2023/04/01 15:08:47;;;;;;;;;2.50;0.00;;;;;;;;6316809;22;45327;-84
2023/04/01 15:11:13;;;;;;;;;0.00;0.00;;;;;;;;6333781;22;47002;-84